Time;durP1;ratioP1;P1;durP2;ratioP2;P2;SDS_P1;SDS_P2;PMS_P1;PMS_P2;Temp;Humidity;BMP_temperature;BMP_pressure;BME280_temperature;BME280_humidity;BME280_pressure;Samples;Min_cycle;Max_cycle;Signal;HPM_P1;HPM_P2
2023/03/28 00:01:39;;;;;;;6.72;2.60;;;2.20;99.90;;;;;;4936315;28;94513;-34
2023/03/28 00:04:04;;;;;;;6.38;2.75;;;2.20;99.90;;;;;;4936540;28;95675;-28
2023/03/28 00:06:30;;;;;;;4.35;3.03;;;2.10;99.90;;;;;;4936218;28;93634;-29
2023/03/28 00:08:56;;;;;;;7.70;3.15;;;2.10;99.90;;;;;;4936764;28;94619;-30
2023/03/28 00:11:23;;;;;;;13.93;3.60;;;2.10;99.90;;;;;;4936919;28;93949;-33
2023/03/28 00:13:59;;;;;;;6.07;2.15;;;2.10;99.90;;;;;;4936430;28;94585;-32
2023/03/28 00:16:31;;;;;;;10.23;2.60;;;2.10;99.90;;;;;;4919213;28;93296;-33
2023/03/28 00:18:59;;;;;;;13.98;3.25;;;2.00;99.90;;;;;;4935931;28;94688;-35
2023/03/28 00:21:34;;;;;;;10.27;2.20;;;2.10;99.90;;;;;;4936824;28;94549;-30
2023/03/28 00:24:02;;;;;;;4.07;2.83;;;2.10;99.90;;;;;;4939460;28;94479;-31
2023/03/28 00:26:33;;;;;;;8.02;2.08;;;2.00;99.90;;;;;;4939341;28;92150;-32
2023/03/28 00:29:01;;;;;;;8.05;3.10;;;2.00;99.90;;;;;;4938989;28;95728;-31
2023/03/28 00:31:28;;;;;;;;;;;2.00;99.90;;;;;;4939949;28;95415;-31
2023/03/28 00:33:55;;;;;;;10.27;2.35;;;2.00;99.90;;;;;;4941371;28;92088;-32
2023/03/28 00:36:21;;;;;;;7.05;2.10;;;2.00;99.90;;;;;;4939794;28;92487;-35
2023/03/28 00:38:52;;;;;;;5.65;2.50;;;1.90;99.90;;;;;;4938749;28;96122;-32
2023/03/28 00:41:20;;;;;;;9.77;3.00;;;1.90;99.90;;;;;;4939191;28;95635;-31
2023/03/28 00:43:51;;;;;;;5.20;3.53;;;1.90;99.90;;;;;;4939549;28;93449;-32
2023/03/28 00:46:35;;;;;;;7.03;3.13;;;1.80;99.90;;;;;;4922501;28;91378;-30
2023/03/28 00:49:06;;;;;;;5.32;1.88;;;1.80;99.90;;;;;;4939262;28;94410;-34
2023/03/28 00:51:39;;;;;;;4.93;1.55;;;1.80;99.90;;;;;;4939185;28;94553;-31
2023/03/28 00:54:10;;;;;;;13.43;2.45;;;1.80;99.90;;;;;;4939023;28;95327;-32
2023/03/28 00:56:37;;;;;;;10.07;3.30;;;1.70;99.90;;;;;;4939307;28;95075;-29
2023/03/28 00:59:08;;;;;;;7.45;2.67;;;1.70;99.90;;;;;;4939608;28;94959;-30
2023/03/28 01:01:34;;;;;;;12.32;3.83;;;1.70;99.90;;;;;;4938961;28;96237;-31
2023/03/28 01:04:03;;;;;;;6.97;2.08;;;1.70;99.90;;;;;;4939008;28;93291;-29
2023/03/28 01:06:40;;;;;;;8.27;2.35;;;1.60;99.90;;;;;;4938981;28;93905;-34
2023/03/28 01:09:08;;;;;;;7.35;2.55;;;1.60;99.90;;;;;;4939206;28;94708;-35
2023/03/28 01:11:36;;;;;;;6.35;3.17;;;1.60;99.90;;;;;;4939492;28;94474;-34
2023/03/28 01:14:03;;;;;;;8.45;2.67;;;1.60;99.90;;;;;;4940023;28;92183;-29
2023/03/28 01:16:30;;;;;;;5.32;2.25;;;1.60;99.90;;;;;;4938552;28;92144;-34
2023/03/28 01:19:00;;;;;;;16.90;3.65;;;1.60;99.90;;;;;;4938209;28;96213;-31
2023/03/28 01:22:05;;;;;;;3.72;2.92;;;1.50;99.90;;;;;;4938133;28;94302;-33
2023/03/28 01:25:09;;;;;;;3.92;2.13;;;1.50;99.90;;;;;;4939600;28;93465;-33
2023/03/28 01:27:41;;;;;;;14.90;4.47;;;1.50;99.90;;;;;;4934985;28;94389;-31
2023/03/28 01:30:26;;;;;;;9.63;2.63;;;1.50;99.90;;;;;;4938805;28;95005;-31
2023/03/28 01:33:32;;;;;;;5.38;2.10;;;1.50;99.90;;;;;;4938524;28;95718;-30
2023/03/28 01:36:12;;;;;;;11.45;4.00;;;1.40;99.90;;;;;;4937691;28;94278;-30
2023/03/28 01:39:03;;;;;;;5.07;2.53;;;1.40;99.90;;;;;;4939158;28;93833;-29
2023/03/28 01:41:57;;;;;;;9.63;3.33;;;1.40;99.90;;;;;;4938341;28;94326;-31
2023/03/28 01:44:49;;;;;;;5.65;2.15;;;1.40;99.90;;;;;;4938106;28;94038;-31
2023/03/28 01:47:36;;;;;;;8.55;2.58;;;1.40;99.90;;;;;;4938315;28;93049;-31
2023/03/28 01:50:07;;;;;;;11.45;2.72;;;1.40;99.90;;;;;;4938386;28;92597;-29
2023/03/28 01:52:51;;;;;;;4.82;2.50;;;1.30;99.90;;;;;;4937974;28;94235;-32
2023/03/28 01:55:29;;;;;;;4.03;2.17;;;1.30;99.90;;;;;;4938513;28;94351;-33
2023/03/28 01:58:12;;;;;;;21.27;3.23;;;1.30;99.90;;;;;;4937765;28;94346;-31
2023/03/28 02:00:44;;;;;;;2.50;1.30;;;1.30;99.90;;;;;;4938792;28;92666;-30
2023/03/28 02:03:17;;;;;;;7.22;2.17;;;1.30;99.90;;;;;;4938579;28;94910;-29
2023/03/28 02:05:44;;;;;;;12.73;2.05;;;1.30;99.90;;;;;;4937690;28;94651;-31
2023/03/28 02:08:12;;;;;;;5.97;2.97;;;1.30;99.90;;;;;;4938312;28;93528;-33
2023/03/28 02:10:41;;;;;;;2.20;1.55;;;1.30;99.90;;;;;;4938357;28;93698;-29
2023/03/28 02:13:20;;;;;;;4.03;2.58;;;1.30;99.90;;;;;;4920495;28;95937;-34
2023/03/28 02:15:51;;;;;;;3.58;2.28;;;1.20;99.90;;;;;;4938088;28;97789;-31
2023/03/28 02:18:23;;;;;;;15.13;2.75;;;1.20;99.90;;;;;;4921249;28;94332;-33
2023/03/28 02:20:53;;;;;;;5.55;2.00;;;1.20;99.90;;;;;;4937921;28;94540;-35
2023/03/28 02:23:43;;;;;;;10.05;3.30;;;1.10;99.90;;;;;;4938460;28;95052;-31
2023/03/28 02:26:09;;;;;;;6.13;2.15;;;1.10;99.90;;;;;;4937896;28;94449;-33
2023/03/28 02:28:36;;;;;;;9.25;3.40;;;1.10;99.90;;;;;;4937962;28;94831;-34
2023/03/28 02:31:05;;;;;;;7.15;2.85;;;1.10;99.90;;;;;;4938378;28;91390;-34
2023/03/28 02:33:38;;;;;;;3.58;1.90;;;1.10;99.90;;;;;;4938666;28;94756;-28
2023/03/28 02:36:15;;;;;;;7.85;2.15;;;1.10;99.90;;;;;;4936595;28;94122;-32
2023/03/28 02:38:51;;;;;;;16.27;3.30;;;1.10;99.90;;;;;;4937404;28;93614;-32
2023/03/28 02:42:07;;;;;;;10.10;2.53;;;1.10;99.90;;;;;;4937671;28;93174;-33
2023/03/28 02:45:04;;;;;;;8.88;3.08;;;1.00;99.90;;;;;;4911411;28;95181;-33
2023/03/28 02:47:55;;;;;;;3.03;2.13;;;1.00;99.90;;;;;;4937528;28;94631;-31
2023/03/28 02:50:28;;;;;;;4.28;2.05;;;1.00;99.90;;;;;;4938839;28;94096;-28
2023/03/28 02:52:57;;;;;;;8.18;2.65;;;1.00;99.90;;;;;;4937587;28;94567;-29
2023/03/28 02:55:27;;;;;;;;;;;1.00;99.90;;;;;;4938627;28;95092;-35
2023/03/28 02:58:20;;;;;;;6.05;2.00;;;1.00;99.90;;;;;;4939159;28;94043;-34
2023/03/28 03:00:47;;;;;;;5.63;2.85;;;1.00;99.90;;;;;;4938111;28;94242;-31
2023/03/28 03:03:14;;;;;;;5.18;2.03;;;1.00;99.90;;;;;;4937659;28;92501;-30
2023/03/28 03:05:40;;;;;;;6.80;3.80;;;1.00;99.90;;;;;;4937050;28;93875;-36
2023/03/28 03:08:06;;;;;;;4.60;2.55;;;1.00;99.90;;;;;;4937114;28;95691;-31
2023/03/28 03:10:32;;;;;;;10.75;2.95;;;1.00;99.90;;;;;;4937831;28;94184;-31
2023/03/28 03:12:57;;;;;;;8.43;3.22;;;1.00;99.90;;;;;;4937358;28;92195;-34
2023/03/28 03:15:24;;;;;;;10.25;4.22;;;1.00;99.90;;;;;;4937356;28;94275;-33
2023/03/28 03:17:50;;;;;;;7.25;3.60;;;1.00;99.90;;;;;;4937429;28;94376;-31
2023/03/28 03:20:16;;;;;;;8.07;4.00;;;1.00;99.90;;;;;;4938195;28;93208;-30
2023/03/28 03:22:41;;;;;;;9.20;2.65;;;1.00;99.90;;;;;;4937264;28;94046;-29
2023/03/28 03:25:08;;;;;;;17.17;4.50;;;1.00;99.90;;;;;;4937148;28;95193;-29
2023/03/28 03:27:36;;;;;;;8.20;3.67;;;1.00;99.90;;;;;;4937577;28;95076;-31
2023/03/28 03:30:02;;;;;;;6.13;2.27;;;1.00;99.90;;;;;;4936297;28;95175;-30
2023/03/28 03:32:28;;;;;;;6.93;3.78;;;1.00;99.90;;;;;;4937540;28;93323;-35
2023/03/28 03:34:54;;;;;;;8.77;2.45;;;0.90;99.90;;;;;;4936986;28;95388;-30
2023/03/28 03:37:19;;;;;;;7.78;2.90;;;0.90;99.90;;;;;;4936839;28;94546;-36
2023/03/28 03:39:45;;;;;;;13.77;3.00;;;1.00;99.90;;;;;;4937934;28;92116;-33
2023/03/28 03:42:11;;;;;;;6.28;2.47;;;0.90;99.90;;;;;;4936785;28;92682;-29
2023/03/28 03:44:37;;;;;;;4.50;2.55;;;0.90;99.90;;;;;;4937088;28;94299;-31
2023/03/28 03:47:03;;;;;;;7.18;2.60;;;0.90;99.90;;;;;;4937186;28;96074;-32
2023/03/28 03:49:29;;;;;;;7.95;2.17;;;0.80;99.90;;;;;;4936983;28;94220;-35
2023/03/28 03:51:54;;;;;;;17.50;3.72;;;0.90;99.90;;;;;;4936884;28;94246;-28
2023/03/28 03:54:20;;;;;;;9.40;2.75;;;0.90;99.90;;;;;;4936414;28;95697;-28
2023/03/28 03:56:47;;;;;;;5.72;1.80;;;0.80;99.90;;;;;;4936149;28;95380;-32
2023/03/28 03:59:14;;;;;;;13.77;2.45;;;0.80;99.90;;;;;;4940667;28;94544;-30
2023/03/28 04:01:42;;;;;;;6.97;2.85;;;0.80;99.90;;;;;;4940173;28;93715;-35
2023/03/28 04:04:08;;;;;;;7.72;3.88;;;0.80;99.90;;;;;;4940676;28;95105;-31
2023/03/28 04:06:34;;;;;;;5.30;2.85;;;0.80;99.90;;;;;;4940253;28;94036;-33
2023/03/28 04:09:00;;;;;;;6.22;2.53;;;0.80;99.90;;;;;;4939887;28;92851;-30
2023/03/28 04:11:26;;;;;;;18.30;2.33;;;0.80;99.90;;;;;;4941025;28;93295;-35
2023/03/28 04:13:51;;;;;;;9.50;3.47;;;0.70;99.90;;;;;;4940291;28;94479;-31
2023/03/28 04:16:19;;;;;;;13.07;3.38;;;0.70;99.90;;;;;;4939893;28;94793;-37
2023/03/28 04:18:49;;;;;;;11.52;2.03;;;0.70;99.90;;;;;;4939565;28;94632;-32
2023/03/28 04:21:18;;;;;;;20.58;2.65;;;0.60;99.90;;;;;;4922046;28;92980;-34
2023/03/28 04:23:47;;;;;;;;;;;0.70;99.90;;;;;;4940579;28;92962;-34
2023/03/28 04:26:14;;;;;;;7.30;2.88;;;0.60;99.90;;;;;;4923663;28;93885;-31
2023/03/28 04:28:40;;;;;;;2.78;1.90;;;0.60;99.90;;;;;;4940251;28;94392;-33
2023/03/28 04:31:06;;;;;;;5.07;2.05;;;0.60;99.90;;;;;;4938791;28;92595;-30
2023/03/28 04:33:32;;;;;;;4.95;3.38;;;0.60;99.90;;;;;;4922544;28;95162;-33
2023/03/28 04:36:00;;;;;;;3.78;2.95;;;0.60;99.90;;;;;;4938765;28;94178;-30
2023/03/28 04:38:28;;;;;;;10.45;2.38;;;0.60;99.90;;;;;;4939548;28;92879;-30
2023/03/28 04:40:56;;;;;;;6.78;1.85;;;0.60;99.90;;;;;;4939517;28;92498;-32
2023/03/28 04:43:23;;;;;;;;;;;0.60;99.90;;;;;;4939541;28;95787;-30
2023/03/28 04:45:49;;;;;;;6.18;1.92;;;0.60;99.90;;;;;;4940260;28;95978;-33
2023/03/28 04:48:14;;;;;;;4.00;2.08;;;0.60;99.90;;;;;;4939623;28;94594;-31
2023/03/28 04:50:40;;;;;;;7.45;2.72;;;0.60;99.90;;;;;;4939461;28;93241;-33
2023/03/28 04:53:05;;;;;;;4.80;2.75;;;0.60;99.90;;;;;;4938906;28;94900;-30
2023/03/28 04:55:31;;;;;;;7.45;3.85;;;0.60;99.90;;;;;;4939464;28;94595;-32
2023/03/28 04:57:57;;;;;;;3.00;2.10;;;0.60;99.90;;;;;;4938923;28;92502;-31
2023/03/28 05:00:24;;;;;;;10.20;2.95;;;0.60;99.90;;;;;;4940205;28;92703;-29
2023/03/28 05:02:53;;;;;;;4.68;2.30;;;0.50;99.90;;;;;;4938289;28;96138;-32
2023/03/28 05:05:19;;;;;;;11.40;3.63;;;0.50;99.90;;;;;;4939153;28;94695;-34
2023/03/28 05:07:45;;;;;;;9.05;3.42;;;0.50;99.90;;;;;;4938012;28;93592;-32
2023/03/28 05:10:11;;;;;;;8.43;2.40;;;0.50;99.90;;;;;;4938227;28;94324;-29
2023/03/28 05:12:36;;;;;;;14.60;3.95;;;0.50;99.90;;;;;;4938703;28;95089;-30
2023/03/28 05:15:03;;;;;;;7.20;1.83;;;0.50;99.90;;;;;;4938847;28;94256;-35
2023/03/28 05:17:29;;;;;;;4.35;2.20;;;0.50;99.90;;;;;;4939260;28;93216;-30
2023/03/28 05:19:55;;;;;;;2.47;1.98;;;0.50;99.90;;;;;;4938538;28;93403;-34
2023/03/28 05:22:21;;;;;;;3.53;1.70;;;0.50;99.90;;;;;;4938437;28;94829;-33
2023/03/28 05:24:46;;;;;;;20.42;3.22;;;0.50;99.90;;;;;;4939314;28;94206;-29
2023/03/28 05:27:12;;;;;;;11.65;3.30;;;0.50;99.90;;;;;;4938479;28;93117;-30
2023/03/28 05:29:38;;;;;;;4.93;3.00;;;0.50;99.90;;;;;;4938312;28;92560;-31
2023/03/28 05:32:03;;;;;;;10.55;2.08;;;0.50;99.90;;;;;;4937309;28;95583;-31
2023/03/28 05:34:29;;;;;;;6.85;3.55;;;0.60;99.90;;;;;;4939123;28;95376;-29
2023/03/28 05:36:58;;;;;;;6.03;2.47;;;0.60;99.90;;;;;;4938760;28;92126;-31
2023/03/28 05:39:24;;;;;;;4.97;2.70;;;0.60;99.90;;;;;;4938752;28;93000;-30
2023/03/28 05:41:49;;;;;;;5.97;2.63;;;0.60;99.90;;;;;;4938319;28;94860;-32
2023/03/28 05:44:15;;;;;;;5.20;2.20;;;0.60;99.90;;;;;;4938969;28;94784;-29
2023/03/28 05:46:40;;;;;;;16.85;5.40;;;0.60;99.90;;;;;;4938727;28;94646;-31
2023/03/28 05:49:07;;;;;;;13.45;4.05;;;0.60;99.90;;;;;;4939501;28;91720;-33
2023/03/28 05:51:32;;;;;;;3.63;2.42;;;0.60;99.90;;;;;;4921092;28;96342;-32
2023/03/28 05:53:58;;;;;;;9.10;3.28;;;0.70;99.90;;;;;;4938193;28;95850;-31
2023/03/28 05:56:23;;;;;;;20.92;2.67;;;0.70;99.90;;;;;;4938559;28;93855;-30
2023/03/28 05:58:50;;;;;;;9.55;2.88;;;0.70;99.90;;;;;;4939544;28;92647;-31
2023/03/28 06:01:22;;;;;;;2.92;2.70;;;0.70;99.90;;;;;;4939047;28;94502;-30
2023/03/28 06:03:48;;;;;;;9.63;3.25;;;0.70;99.90;;;;;;4938649;28;94456;-35
2023/03/28 06:06:14;;;;;;;3.53;2.05;;;0.80;99.90;;;;;;4939509;28;92712;-33
2023/03/28 06:08:40;;;;;;;7.63;3.20;;;0.80;99.90;;;;;;4938561;28;93925;-32
2023/03/28 06:11:06;;;;;;;7.72;2.92;;;0.80;99.90;;;;;;4939029;28;95452;-33
2023/03/28 06:13:32;;;;;;;4.25;2.22;;;0.80;99.90;;;;;;4938490;28;94081;-31
2023/03/28 06:15:58;;;;;;;45.72;7.75;;;0.90;99.90;;;;;;4938439;28;92093;-31
2023/03/28 06:18:24;;;;;;;6.20;2.97;;;0.90;99.90;;;;;;4938503;28;93933;-30
2023/03/28 06:20:50;;;;;;;8.88;3.88;;;0.90;99.90;;;;;;4936676;28;95106;-31
2023/03/28 06:23:15;;;;;;;10.32;3.33;;;1.00;99.90;;;;;;4938484;28;93524;-32
2023/03/28 06:25:42;;;;;;;9.60;3.30;;;1.00;99.90;;;;;;4937877;28;93513;-31
2023/03/28 06:28:08;;;;;;;10.02;2.50;;;1.10;99.90;;;;;;4937018;28;92269;-30
2023/03/28 06:30:34;;;;;;;4.30;2.47;;;1.10;99.90;;;;;;4937571;28;95078;-34
2023/03/28 06:33:00;;;;;;;10.10;3.28;;;1.20;99.90;;;;;;4935834;28;95510;-31
2023/03/28 06:35:25;;;;;;;11.38;3.63;;;1.30;99.90;;;;;;4919330;28;92223;-34
2023/03/28 06:37:51;;;;;;;4.03;2.33;;;1.40;99.90;;;;;;4936881;28;93616;-30
2023/03/28 06:40:17;;;;;;;8.82;3.35;;;1.40;99.90;;;;;;4936834;28;94698;-35
2023/03/28 06:42:42;;;;;;;5.07;2.60;;;1.40;99.90;;;;;;4937063;28;93599;-28
2023/03/28 06:45:09;;;;;;;5.20;2.25;;;1.50;99.90;;;;;;4937353;28;95760;-29
2023/03/28 06:47:34;;;;;;;9.57;3.55;;;1.60;99.90;;;;;;4938081;28;94761;-32
2023/03/28 06:50:00;;;;;;;13.38;3.72;;;1.70;99.90;;;;;;4937884;28;94977;-32
2023/03/28 06:52:26;;;;;;;6.30;3.03;;;1.80;99.90;;;;;;4937451;28;94178;-31
2023/03/28 06:54:51;;;;;;;5.70;2.70;;;1.90;99.90;;;;;;4936566;28;92894;-31
2023/03/28 06:57:17;;;;;;;5.13;2.97;;;2.10;99.90;;;;;;4924015;28;92514;-32
2023/03/28 06:59:42;;;;;;;8.77;3.55;;;2.30;99.90;;;;;;4916571;28;95174;-31
2023/03/28 07:02:11;;;;;;;7.80;2.60;;;2.60;99.90;;;;;;4915729;28;94562;-32
2023/03/28 07:04:37;;;;;;;9.30;3.15;;;2.80;99.90;;;;;;4916269;28;93505;-32
2023/03/28 07:07:03;;;;;;;17.27;4.15;;;3.10;99.90;;;;;;4915917;28;92897;-32
2023/03/28 07:09:28;;;;;;;7.90;3.63;;;3.30;99.90;;;;;;4915104;28;95711;-33
2023/03/28 07:11:54;;;;;;;8.43;3.72;;;3.50;99.90;;;;;;4915481;28;95247;-33
2023/03/28 07:14:20;;;;;;;8.75;3.50;;;3.70;99.90;;;;;;4916058;28;93443;-29
2023/03/28 07:16:45;;;;;;;6.05;2.88;;;3.90;99.90;;;;;;4915353;28;92622;-30
2023/03/28 07:19:11;;;;;;;7.85;2.35;;;4.10;99.90;;;;;;4916315;28;94255;-33
2023/03/28 07:21:37;;;;;;;8.60;4.85;;;4.40;99.90;;;;;;4923843;28;96068;-30
2023/03/28 07:24:03;;;;;;;5.22;3.10;;;4.70;99.90;;;;;;4934605;28;93220;-31
2023/03/28 07:26:28;;;;;;;3.50;2.47;;;4.80;99.90;;;;;;4935610;28;93112;-30
2023/03/28 07:28:54;;;;;;;11.55;3.60;;;4.90;99.90;;;;;;4934626;28;94316;-35
2023/03/28 07:31:20;;;;;;;4.63;2.03;;;5.10;99.90;;;;;;4936022;28;94647;-32
2023/03/28 07:33:48;;;;;;;9.63;2.80;;;5.30;99.90;;;;;;4936708;28;94376;-33
2023/03/28 07:36:19;;;;;;;7.75;2.58;;;5.50;99.90;;;;;;4938830;28;94720;-35
2023/03/28 07:38:45;;;;;;;4.47;2.75;;;5.70;99.90;;;;;;4937494;28;94777;-29
2023/03/28 07:41:11;;;;;;;8.02;3.20;;;5.80;99.90;;;;;;4939120;28;94973;-30
2023/03/28 07:43:40;;;;;;;8.35;3.33;;;5.90;99.90;;;;;;4934686;28;94341;-32
2023/03/28 07:46:08;;;;;;;7.38;3.42;;;6.20;99.90;;;;;;4918486;28;93956;-33
2023/03/28 07:48:35;;;;;;;4.65;1.85;;;6.40;99.90;;;;;;4918152;28;94546;-32
2023/03/28 07:51:02;;;;;;;2.55;2.05;;;6.60;99.90;;;;;;4918275;28;94596;-34
2023/03/28 07:53:28;;;;;;;8.35;2.97;;;6.80;99.90;;;;;;4919795;28;94005;-33
2023/03/28 07:55:54;;;;;;;3.33;1.77;;;7.10;99.90;;;;;;4918132;28;92547;-34
2023/03/28 07:58:20;;;;;;;7.10;2.67;;;7.30;99.90;;;;;;4918489;28;95313;-31
2023/03/28 08:00:45;;;;;;;7.88;1.75;;;7.60;99.90;;;;;;4918173;28;95418;-32
2023/03/28 08:03:12;;;;;;;8.32;1.85;;;7.80;99.90;;;;;;4918718;28;93210;-32
2023/03/28 08:05:38;;;;;;;6.40;2.75;;;7.80;99.90;;;;;;4919437;28;92895;-33
2023/03/28 08:08:05;;;;;;;2.55;1.88;;;7.90;99.90;;;;;;4918548;28;95113;-32
2023/03/28 08:10:31;;;;;;;3.40;2.05;;;8.00;99.90;;;;;;4918056;28;93886;-35
2023/03/28 08:12:57;;;;;;;3.78;2.25;;;7.70;99.90;;;;;;4918450;28;92535;-31
2023/03/28 08:15:23;;;;;;;2.03;1.63;;;8.00;99.90;;;;;;4918490;28;93797;-29
2023/03/28 08:17:49;;;;;;;3.45;1.50;;;8.10;99.90;;;;;;4918290;28;95008;-33
2023/03/28 08:20:15;;;;;;;3.65;2.92;;;8.20;99.90;;;;;;4918529;28;94095;-31
2023/03/28 08:22:40;;;;;;;3.38;2.08;;;8.40;99.90;;;;;;4916955;28;93851;-31
2023/03/28 08:25:06;;;;;;;6.20;2.72;;;8.60;99.90;;;;;;4918187;28;93437;-31
2023/03/28 08:27:33;;;;;;;21.48;2.58;;;8.50;99.90;;;;;;4917808;28;94883;-29
2023/03/28 08:29:58;;;;;;;4.45;1.90;;;8.40;99.90;;;;;;4901320;28;94733;-32
2023/03/28 08:32:25;;;;;;;5.60;2.13;;;8.80;99.90;;;;;;4918737;28;94303;-30
2023/03/28 08:34:51;;;;;;;6.97;3.03;;;8.90;99.90;;;;;;4918112;28;93514;-30
2023/03/28 08:37:18;;;;;;;10.02;1.40;;;8.90;99.90;;;;;;4917853;28;94493;-33
2023/03/28 08:39:44;;;;;;;5.90;1.80;;;8.90;99.90;;;;;;4918044;28;94966;-30
2023/03/28 08:42:18;;;;;;;6.07;1.50;;;8.50;99.90;;;;;;4918506;28;94334;-31
2023/03/28 08:45:00;;;;;;;2.58;1.15;;;8.30;99.90;;;;;;4917949;28;94460;-30
2023/03/28 08:47:35;;;;;;;4.97;2.35;;;8.30;99.90;;;;;;4917541;28;95256;-33
2023/03/28 08:50:18;;;;;;;1.95;1.70;;;8.20;99.90;;;;;;4917290;28;95563;-30
2023/03/28 08:52:45;;;;;;;4.70;2.30;;;8.10;99.90;;;;;;4917540;28;93709;-30
2023/03/28 08:55:21;;;;;;;8.88;2.33;;;8.20;99.90;;;;;;4918181;28;93065;-33
2023/03/28 08:57:50;;;;;;;4.28;1.67;;;7.90;99.90;;;;;;4916431;28;95004;-30
2023/03/28 09:00:26;;;;;;;3.30;2.08;;;8.00;99.90;;;;;;4917365;28;94481;-30
2023/03/28 09:02:52;;;;;;;3.92;2.15;;;8.00;99.90;;;;;;4917968;28;94377;-30
2023/03/28 09:05:27;;;;;;;4.65;1.77;;;7.60;99.90;;;;;;4918610;28;92568;-30
2023/03/28 09:08:25;;;;;;;3.13;1.83;;;7.70;99.90;;;;;;4916974;28;94522;-31
2023/03/28 09:11:01;;;;;;;4.32;2.38;;;7.70;99.90;;;;;;4906502;28;93902;-30
2023/03/28 09:13:34;;;;;;;4.00;2.22;;;7.60;99.90;;;;;;4917449;28;94300;-31
2023/03/28 09:16:05;;;;;;;8.45;2.15;;;7.90;99.90;;;;;;4917087;28;92798;-29
2023/03/28 09:19:11;;;;;;;4.30;1.30;;;7.90;99.90;;;;;;4917658;28;94586;-29
2023/03/28 09:21:52;;;;;;;4.20;1.45;;;7.90;99.90;;;;;;4917108;28;95987;-30
2023/03/28 09:24:35;;;;;;;4.18;1.25;;;8.40;99.70;;;;;;4917833;28;92898;-33
2023/03/28 09:27:15;;;;;;;4.60;2.85;;;8.60;95.00;;;;;;4926372;28;93502;-28
2023/03/28 09:29:44;;;;;;;5.05;1.50;;;8.60;85.20;;;;;;4918892;28;93957;-30
2023/03/28 09:32:23;;;;;;;2.28;1.52;;;8.90;92.30;;;;;;4917726;28;93157;-33
2023/03/28 09:34:50;;;;;;;2.72;1.10;;;9.20;90.80;;;;;;4917605;28;94127;-30
2023/03/28 09:37:36;;;;;;;3.65;2.13;;;9.50;81.00;;;;;;4917341;28;94458;-29
2023/03/28 09:40:22;;;;;;;5.78;3.38;;;10.10;91.60;;;;;;4916240;28;95510;-29
2023/03/28 09:43:13;;;;;;;3.47;1.70;;;9.80;80.80;;;;;;4916733;28;95543;-32
2023/03/28 09:45:53;;;;;;;1.77;1.65;;;9.60;80.30;;;;;;4917852;28;94506;-31
2023/03/28 09:48:26;;;;;;;4.95;1.52;;;9.90;82.00;;;;;;4917768;28;95025;-29
2023/03/28 09:50:51;;;;;;;4.45;2.00;;;9.80;79.40;;;;;;4916652;28;94921;-32
2023/03/28 09:53:29;;;;;;;4.28;2.20;;;10.00;78.70;;;;;;4916775;28;94796;-31
2023/03/28 09:55:59;;;;;;;4.67;2.80;;;9.70;78.50;;;;;;4915736;28;93250;-31
2023/03/28 09:58:25;;;;;;;1.52;1.25;;;9.60;84.50;;;;;;4917377;28;94008;-32
2023/03/28 10:00:53;;;;;;;2.95;2.30;;;9.50;83.20;;;;;;4916577;28;94484;-33
2023/03/28 10:03:28;;;;;;;4.37;1.80;;;9.20;80.70;;;;;;4917090;28;93261;-29
2023/03/28 10:06:18;;;;;;;4.93;2.22;;;9.40;80.90;;;;;;4916672;28;94435;-30
2023/03/28 10:08:44;;;;;;;3.40;1.25;;;9.10;78.10;;;;;;4899356;28;93864;-28
2023/03/28 10:11:15;;;;;;;3.78;1.50;;;9.10;80.60;;;;;;4917075;28;94229;-32
2023/03/28 10:13:44;;;;;;;3.35;1.65;;;9.10;77.90;;;;;;4915842;28;94533;-32
2023/03/28 10:16:13;;;;;;;3.30;1.90;;;9.20;78.80;;;;;;4916572;28;94767;-28
2023/03/28 10:18:40;;;;;;;2.38;1.90;;;9.30;79.70;;;;;;4917143;28;93550;-29
2023/03/28 10:21:19;;;;;;;2.08;1.88;;;9.60;83.20;;;;;;4917430;28;94090;-29
2023/03/28 10:23:55;;;;;;;4.97;1.50;;;9.40;68.80;;;;;;4917091;28;93975;-32
2023/03/28 10:26:24;;;;;;;2.65;1.20;;;9.10;71.40;;;;;;4917393;28;94893;-31
2023/03/28 10:28:53;;;;;;;2.65;1.98;;;8.90;71.60;;;;;;4916664;28;93660;-32
2023/03/28 10:31:21;;;;;;;;;;;8.80;73.10;;;;;;4917025;28;95301;-30
2023/03/28 10:33:51;;;;;;;;;;;8.60;73.50;;;;;;4918094;28;95962;-31
2023/03/28 10:36:31;;;;;;;2.85;1.65;;;8.50;75.00;;;;;;4918326;28;93623;-31
2023/03/28 10:38:58;;;;;;;2.70;1.48;;;8.60;77.30;;;;;;4916992;28;93373;-33
2023/03/28 10:41:28;;;;;;;4.43;1.70;;;8.20;75.30;;;;;;4916867;28;94549;-31
2023/03/28 10:43:55;;;;;;;2.05;1.33;;;8.30;74.80;;;;;;4916329;28;94013;-33
2023/03/28 10:46:34;;;;;;;2.05;0.80;;;8.60;73.10;;;;;;4916697;28;92131;-34
2023/03/28 10:49:12;;;;;;;3.50;1.38;;;9.10;72.00;;;;;;4916253;28;92333;-30
2023/03/28 10:51:40;;;;;;;13.68;1.67;;;9.10;69.00;;;;;;4922847;28;94484;-32
2023/03/28 10:54:55;;;;;;;1.27;1.17;;;8.80;71.00;;;;;;4916711;28;94517;-34
2023/03/28 10:57:36;;;;;;;3.97;1.40;;;8.70;69.70;;;;;;4899039;28;94093;-30
2023/03/28 11:00:24;;;;;;;4.63;1.58;;;8.80;73.30;;;;;;4916430;28;93376;-29
2023/03/28 11:03:09;;;;;;;2.53;1.58;;;8.80;70.90;;;;;;4915731;28;94580;-34
2023/03/28 11:05:47;;;;;;;2.00;1.23;;;9.10;74.00;;;;;;4916094;28;96286;-30
2023/03/28 11:08:43;;;;;;;4.38;1.60;;;9.40;72.60;;;;;;4916076;28;93704;-34
2023/03/28 11:11:43;;;;;;;5.25;1.92;;;9.40;73.20;;;;;;4916455;28;93647;-32
2023/03/28 11:14:27;;;;;;;10.02;2.35;;;8.90;70.70;;;;;;4899096;28;94883;-32
2023/03/28 11:17:05;;;;;;;4.70;1.73;;;8.80;74.70;;;;;;4916962;28;94226;-33
2023/03/28 11:19:40;;;;;;;6.30;1.98;;;9.00;75.30;;;;;;4917892;28;92643;-31
2023/03/28 11:22:12;;;;;;;4.43;1.50;;;8.70;74.60;;;;;;4916548;28;94566;-30
2023/03/28 11:24:43;;;;;;;2.22;1.98;;;8.70;73.50;;;;;;4935890;28;95930;-32
2023/03/28 11:27:30;;;;;;;4.82;2.15;;;8.60;75.10;;;;;;4937534;28;94363;-31
2023/03/28 11:30:21;;;;;;;2.22;1.50;;;8.70;74.00;;;;;;4920519;28;94676;-32
2023/03/28 11:33:01;;;;;;;5.30;2.30;;;9.00;74.60;;;;;;4936463;28;94297;-29
2023/03/28 11:35:51;;;;;;;3.75;1.73;;;9.10;73.20;;;;;;4934838;28;94880;-31
2023/03/28 11:38:25;;;;;;;2.88;2.58;;;9.00;73.10;;;;;;4935661;28;94696;-30
2023/03/28 11:41:11;;;;;;;6.40;1.75;;;8.80;71.90;;;;;;4936066;28;92698;-29
2023/03/28 11:43:56;;;;;;;2.33;2.05;;;9.00;74.40;;;;;;4936595;28;93019;-33
2023/03/28 11:46:28;;;;;;;2.45;1.70;;;8.90;75.20;;;;;;4936013;28;95384;-33
2023/03/28 11:49:12;;;;;;;3.47;1.58;;;9.10;73.70;;;;;;4936564;28;94818;-30
2023/03/28 11:52:01;;;;;;;3.10;1.83;;;9.20;74.60;;;;;;4936605;28;95908;-34
2023/03/28 11:54:35;;;;;;;3.40;2.25;;;9.50;75.30;;;;;;4937375;28;92210;-33
2023/03/28 11:57:04;;;;;;;8.57;2.85;;;9.50;73.40;;;;;;4949124;22;94711;-31
2023/03/28 11:59:54;;;;;;;13.15;2.10;;;9.70;75.60;;;;;;4917617;28;95988;-31
2023/03/28 12:02:29;;;;;;;2.35;1.45;;;9.60;71.00;;;;;;4918364;28;93472;-29
2023/03/28 12:05:44;;;;;;;4.55;2.13;;;9.40;70.70;;;;;;4916782;28;93578;-28
2023/03/28 12:08:16;;;;;;;4.22;1.80;;;9.20;72.40;;;;;;4902580;28;94908;-34
2023/03/28 12:10:48;;;;;;;2.40;1.73;;;9.10;75.10;;;;;;4917136;28;93175;-31
2023/03/28 12:13:30;;;;;;;2.55;2.35;;;9.20;74.60;;;;;;4917973;28;93723;-32
2023/03/28 12:16:02;;;;;;;2.30;1.60;;;9.30;73.10;;;;;;4917675;28;93648;-30
2023/03/28 12:18:40;;;;;;;5.65;1.70;;;9.50;75.80;;;;;;4916886;28;95610;-29
2023/03/28 12:21:23;;;;;;;2.80;2.10;;;9.50;72.80;;;;;;4920764;28;96229;-30
2023/03/28 12:24:26;;;;;;;2.75;1.80;;;9.50;75.60;;;;;;4920671;28;93284;-31
2023/03/28 12:26:52;;;;;;;4.00;2.10;;;9.70;76.00;;;;;;4919949;28;95298;-34
2023/03/28 12:29:26;;;;;;;2.80;2.58;;;9.60;74.80;;;;;;4920343;28;94940;-30
2023/03/28 12:32:02;;;;;;;2.47;2.28;;;9.40;74.60;;;;;;4919991;28;94567;-31
2023/03/28 12:34:40;;;;;;;6.13;2.50;;;9.60;74.50;;;;;;4921481;28;94886;-33
2023/03/28 12:37:21;;;;;;;1.85;1.65;;;9.70;72.80;;;;;;4921310;28;92637;-33
2023/03/28 12:40:11;;;;;;;5.32;2.30;;;9.40;71.10;;;;;;4920297;28;95356;-30
2023/03/28 12:42:43;;;;;;;6.53;2.70;;;9.40;71.80;;;;;;4920244;28;94622;-33
2023/03/28 12:45:20;;;;;;;4.18;2.30;;;9.50;73.30;;;;;;4920308;28;95259;-31
2023/03/28 12:47:50;;;;;;;11.60;2.75;;;9.60;75.00;;;;;;4919958;28;92732;-30
2023/03/28 12:50:28;;;;;;;4.47;2.78;;;9.70;75.50;;;;;;4919814;28;95321;-30
2023/03/28 12:52:55;;;;;;;42.90;12.10;;;9.50;74.40;;;;;;4919991;28;93225;-31
2023/03/28 12:55:23;;;;;;;2.92;2.30;;;9.60;76.00;;;;;;4920626;28;93854;-29
2023/03/28 12:57:50;;;;;;;104.65;22.42;;;9.60;73.10;;;;;;4933174;28;93848;-32
2023/03/28 13:00:48;;;;;;;10.93;4.53;;;9.40;72.20;;;;;;4938419;28;94358;-32
2023/03/28 13:03:21;;;;;;;2.10;2.00;;;9.50;72.70;;;;;;4938999;28;95031;-30
2023/03/28 13:05:50;;;;;;;3.13;2.83;;;9.60;71.90;;;;;;4939857;28;94164;-31
2023/03/28 13:08:23;;;;;;;7.85;3.47;;;9.60;73.70;;;;;;4939884;28;93074;-31
2023/03/28 13:11:07;;;;;;;5.05;2.20;;;9.50;73.20;;;;;;4938766;28;96251;-33
2023/03/28 13:13:57;;;;;;;3.83;2.65;;;9.40;71.80;;;;;;4939280;28;95434;-32
2023/03/28 13:17:00;;;;;;;85.68;18.92;;;9.20;70.90;;;;;;4939844;28;93856;-31
2023/03/28 13:20:06;;;;;;;4.43;3.35;;;9.20;73.90;;;;;;4858526;28;94475;-29
2023/03/28 13:22:35;;;;;;;5.82;3.42;;;9.20;72.70;;;;;;4930262;28;94691;-30
2023/03/28 13:25:21;;;;;;;3.10;2.80;;;9.20;72.90;;;;;;4938894;28;94841;-33